Pacific Star — WDG7068 — position and weather

sailwx.info

Track history (hours):
 
Tides and Currents Weather Stations Pressure Air Temp Water Temp Dewpoint Dewpoint Depression Visibility Wind Speed Wind Dir Waves Ship Positions

Pacific Star

Owner: Foss Maritime Company, Seattle, WA. More information available from US FCC via Universal Licensing System and Coast Guard Vessel Documentation Center.

Last reported at 2017-Sep-24 08:22 UTC. Time now 2017-Sep-24 08:51 UTC.
Position N 33°46' W 118°13'.

Length 30 m; draft 5.4 m.

Type: Tug. MMSI: 367563590.

Date/timePositionNaut miles runAvg speedWind from/ knotsBaromVisibWave heightAir tempDewpointWater temp
2017-Sep-24 08:22N 33°46' W 118°13'0 0.0
2017-Sep-24 08:00N 33°46' W 118°13'0 0.0
2017-Sep-24 07:28N 33°46' W 118°13'0 0.0
2017-Sep-24 06:57N 33°46' W 118°13'0 0.0
2017-Sep-24 06:30N 33°46' W 118°13'0 0.0
2017-Sep-24 06:00N 33°46' W 118°13'3 5.3
2017-Sep-24 05:30N 33°44' W 118°13'3 5.9
2017-Sep-24 05:00N 33°45' W 118°17'1 2.8
2017-Sep-24 04:30N 33°46' W 118°16'0 0.3
2017-Sep-24 04:00N 33°46' W 118°16'0 0.0
2017-Sep-24 03:30N 33°46' W 118°16'1 1.6
2017-Sep-24 03:00N 33°45' W 118°16'1 1.3
2017-Sep-24 02:30N 33°44' W 118°17'2 4.6
2017-Sep-24 02:00N 33°43' W 118°15'0 0.9
2017-Sep-24 01:30N 33°43' W 118°14'1 1.3
2017-Sep-24 00:58N 33°43' W 118°14'1 1.5
2017-Sep-24 00:31N 33°44' W 118°13'2 4.3
2017-Sep-23 23:58N 33°46' W 118°13'0 0.0
2017-Sep-23 23:30N 33°46' W 118°13'0 0.0
2017-Sep-23 23:00N 33°46' W 118°13'0 0.0
2017-Sep-23 22:29N 33°46' W 118°13'0 0.0
2017-Sep-23 22:00N 33°46' W 118°13'0 0.0
2017-Sep-23 21:27N 33°46' W 118°13'0 0.0
2017-Sep-23 20:14N 33°46' W 118°13'0 0.0
2017-Sep-23 19:59N 33°46' W 118°13'0 0.0
2017-Sep-22 02:00N 33°46' W 118°13'0 0.0
2017-Sep-22 01:27N 33°46' W 118°13'0 0.0
2017-Sep-22 01:00N 33°46' W 118°13'0 0.0
2017-Sep-22 00:30N 33°46' W 118°13'0 0.0
2017-Sep-22 00:00N 33°46' W 118°13'0 0.0
2017-Sep-21 23:30N 33°46' W 118°13'0 0.0
2017-Sep-21 22:58N 33°46' W 118°13'0 0.0
2017-Sep-21 22:29N 33°46' W 118°13'0 0.0
2017-Sep-21 21:57N 33°46' W 118°13'0 0.0
2017-Sep-21 21:30N 33°46' W 118°13'0 0.0
2017-Sep-21 21:00N 33°46' W 118°13'0 0.0
2017-Sep-21 20:30N 33°46' W 118°13'0 0.0
2017-Sep-21 20:00N 33°46' W 118°13'1 1.1
2017-Sep-21 19:30N 33°46' W 118°13'3 6.3
2017-Sep-21 19:00N 33°43' W 118°11'1 2.5
2017-Sep-21 18:30N 33°44' W 118°12'0 0.0
2017-Sep-21 18:00N 33°44' W 118°12'0 0.0
2017-Sep-21 17:30N 33°44' W 118°12'2 3.0
2017-Sep-21 17:00N 33°44' W 118°10'1 2.4
2017-Sep-21 16:30N 33°43' W 118°11'2 3.0
2017-Sep-21 15:57N 33°41' W 118°11'3 5.0
2017-Sep-21 15:16N 33°44' W 118°12'1 1.3
2017-Sep-21 14:50N 33°44' W 118°12'0 1.1
2017-Sep-21 14:30N 33°44' W 118°12'0 0.8
2017-Sep-21 13:57N 33°45' W 118°13'1 1.4
2017-Sep-21 13:24N 33°44' W 118°12'1 1.1
2017-Sep-21 12:46N 33°45' W 118°12'0 0.2
2017-Sep-21 12:28N 33°45' W 118°12'1 1.0
2017-Sep-21 11:57N 33°44' W 118°12'1 2.4
2017-Sep-21 11:27N 33°44' W 118°11'1 1.3
2017-Sep-21 10:43N 33°44' W 118°12'1 5.7
2017-Sep-21 10:28N 33°45' W 118°13'0 0.0
2017-Sep-21 09:56N 33°45' W 118°13'1 2.6
2017-Sep-21 09:30N 33°46' W 118°13'0 0.2
2017-Sep-21 08:58N 33°46' W 118°13'0 0.2
2017-Sep-21 07:28N 33°46' W 118°13'0 0.0
2017-Sep-21 06:44N 33°46' W 118°13'0 0.0
2017-Sep-21 06:30N 33°46' W 118°13'0 0.0
2017-Sep-21 06:00N 33°46' W 118°13'0 0.0
2017-Sep-21 05:26N 33°46' W 118°13'0 0.0
2017-Sep-21 05:00N 33°46' W 118°13'0 0.0
2017-Sep-21 04:30N 33°46' W 118°13'0 0.0
2017-Sep-21 03:59N 33°46' W 118°13'0 0.0
2017-Sep-21 03:30N 33°46' W 118°13'0 0.0
2017-Sep-21 02:59N 33°46' W 118°13'0 0.0
2017-Sep-21 02:30N 33°46' W 118°13'0 0.0
2017-Sep-21 02:00N 33°46' W 118°13'2 3.8
2017-Sep-21 01:29N 33°44' W 118°13'3 5.5
2017-Sep-21 00:59N 33°44' W 118°16'2 4.2
2017-Sep-21 00:30N 33°46' W 118°16'0 0.2
2017-Sep-21 00:00N 33°46' W 118°16'0 0.0
2017-Sep-20 23:30N 33°46' W 118°16'3 5.8
2017-Sep-20 23:01N 33°43' W 118°16'4 6.5
2017-Sep-20 22:28N 33°46' W 118°13'1 1.2
2017-Sep-20 22:00N 33°46' W 118°13'0 0.0
2017-Sep-20 21:30N 33°46' W 118°13'0 0.0
2017-Sep-20 21:00N 33°46' W 118°13'0 0.0
2017-Sep-20 20:30N 33°46' W 118°13'2 4.4
2017-Sep-20 20:00N 33°44' W 118°13'3 5.7
2017-Sep-20 19:30N 33°45' W 118°17'1 1.4
2017-Sep-20 19:00N 33°45' W 118°16'1 1.4
2017-Sep-20 18:31N 33°46' W 118°16'0 0.3
2017-Sep-20 18:00N 33°46' W 118°17'0 0.0
2017-Sep-20 17:30N 33°46' W 118°17'0 0.0
2017-Sep-20 17:00N 33°46' W 118°17'2 4.0
2017-Sep-20 16:31N 33°44' W 118°17'4 7.3
2017-Sep-20 15:59N 33°44' W 118°12'0 0.4
2017-Sep-20 15:28N 33°44' W 118°12'0 0.0
2017-Sep-20 14:55N 33°44' W 118°12'0 0.0
2017-Sep-20 13:59N 33°44' W 118°12'0 0.0
2017-Sep-20 13:28N 33°44' W 118°12'0 0.0
2017-Sep-20 12:50N 33°44' W 118°12'2 4.7
2017-Sep-20 12:28N 33°45' W 118°14'0 0.3
2017-Sep-20 11:48N 33°45' W 118°14'1 3.2
2017-Sep-20 11:23N 33°46' W 118°13'0 0.0
2017-Sep-20 10:59N 33°46' W 118°13'0 0.0
2017-Sep-20 10:28N 33°46' W 118°13'0 0.0
2017-Sep-20 10:00N 33°46' W 118°13'0 0.0
2017-Sep-20 09:30N 33°46' W 118°13'0 0.4
2017-Sep-20 08:55N 33°46' W 118°13'0 0.2
2017-Sep-20 08:28N 33°46' W 118°13'1 2.0
2017-Sep-20 08:00N 33°46' W 118°13'2 4.7
2017-Sep-20 07:30N 33°44' W 118°11'1 2.3
2017-Sep-20 07:00N 33°44' W 118°10'1 2.0
2017-Sep-20 06:30N 33°44' W 118°11'4 7.5
2017-Sep-20 06:00N 33°43' W 118°16'3 5.0
2017-Sep-20 05:29N 33°45' W 118°16'0 0.3
2017-Sep-20 04:52N 33°46' W 118°16'0 0.6
2017-Sep-20 04:30N 33°45' W 118°16'2 4.2
2017-Sep-20 03:58N 33°43' W 118°16'3 6.4
2017-Sep-20 03:26N 33°46' W 118°13'1 1.5
2017-Sep-20 02:59N 33°46' W 118°13'0 0.0
2017-Sep-20 02:25N 33°46' W 118°13'0 0.0
2017-Sep-20 02:00N 33°46' W 118°13'0 0.0
2017-Sep-20 01:30N 33°46' W 118°13'0 0.0
2017-Sep-20 01:00N 33°46' W 118°13'0 0.0
2017-Sep-20 00:28N 33°46' W 118°13'0 0.0
2017-Sep-20 00:00N 33°46' W 118°13'0 0.0
2017-Sep-19 23:30N 33°46' W 118°13'0 0.0
2017-Sep-19 23:00N 33°46' W 118°13'0 0.0
2017-Sep-19 22:27N 33°46' W 118°13'1 1.4
2017-Sep-19 21:59N 33°46' W 118°13'1 2.4
2017-Sep-19 21:31N 33°45' W 118°13'2 2.6
2017-Sep-19 20:54N 33°46' W 118°13'0 0.0
2017-Sep-19 20:28N 33°46' W 118°13'0 0.0
2017-Sep-19 19:58N 33°46' W 118°13'0 0.0
2017-Sep-19 19:22N 33°46' W 118°13'0 0.0
2017-Sep-19 19:00N 33°46' W 118°13'0 0.0
2017-Sep-19 18:26N 33°46' W 118°13'0 0.0
2017-Sep-19 17:56N 33°46' W 118°13'0 0.0
2017-Sep-19 17:29N 33°46' W 118°13'0 0.0
2017-Sep-19 16:45N 33°46' W 118°13'0 0.0
2017-Sep-19 15:38N 33°46' W 118°13'0 0.0
2017-Sep-19 15:05N 33°46' W 118°13'0 0.0
2017-Sep-19 14:58N 33°46' W 118°13'0 0.0
2017-Sep-19 14:28N 33°46' W 118°13'0 0.0
2017-Sep-19 13:58N 33°46' W 118°13'0 0.0
2017-Sep-19 13:22N 33°46' W 118°13'0 1.1
2017-Sep-19 12:57N 33°46' W 118°13'1 1.9
2017-Sep-19 12:27N 33°45' W 118°14'0 0.5
2017-Sep-19 11:58N 33°45' W 118°14'3 3.2
2017-Sep-19 11:11N 33°44' W 118°11'0 0.4
2017-Sep-19 10:41N 33°44' W 118°12'3 4.5
2017-Sep-19 10:03N 33°46' W 118°13'0 0.0
2017-Sep-19 09:53N 33°46' W 118°13'0 0.0
2017-Sep-19 09:29N 33°46' W 118°13'0 0.0
2017-Sep-19 08:51N 33°46' W 118°13'0 0.0
2017-Sep-19 08:30N 33°46' W 118°13'0 0.0
2017-Sep-19 07:47N 33°46' W 118°13'0 0.0
2017-Sep-19 07:24N 33°46' W 118°13'0 0.0
2017-Sep-19 06:54N 33°46' W 118°13'0 0.0
2017-Sep-19 06:10N 33°46' W 118°13'0 0.0
2017-Sep-19 05:59N 33°46' W 118°13'0 0.0
2017-Sep-19 05:24N 33°46' W 118°13'0 0.0
2017-Sep-19 05:00N 33°46' W 118°13'0 0.0
2017-Sep-19 04:29N 33°46' W 118°13'1 2.6
2017-Sep-19 03:58N 33°45' W 118°13'3 5.4
2017-Sep-19 03:24N 33°44' W 118°17'1 3.6
2017-Sep-19 03:00N 33°46' W 118°16'0 0.1
2017-Sep-19 02:29N 33°46' W 118°16'1 1.1
2017-Sep-19 01:56N 33°45' W 118°16'2 4.3
2017-Sep-19 01:25N 33°43' W 118°16'3 6.1
2017-Sep-19 00:59N 33°42' W 118°13'1 1.0
2017-Sep-19 00:25N 33°42' W 118°12'1 2.7
2017-Sep-18 23:59N 33°43' W 118°11'3 6.7
2017-Sep-18 23:30N 33°46' W 118°13'0 0.0
2017-Sep-18 22:59N 33°46' W 118°13'0 0.0
2017-Sep-18 22:28N 33°46' W 118°13'2 4.7
2017-Sep-18 21:58N 33°44' W 118°13'3 5.8
2017-Sep-18 21:29N 33°44' W 118°17'0 0.9
2017-Sep-18 21:00N 33°45' W 118°16'0 0.2
2017-Sep-18 20:29N 33°45' W 118°16'2 4.5
2017-Sep-18 20:00N 33°43' W 118°15'0 0.4
2017-Sep-18 19:31N 33°43' W 118°16'3 5.4
2017-Sep-18 19:00N 33°46' W 118°17'0 0.1
2017-Sep-18 18:30N 33°45' W 118°17'1 2.8
2017-Sep-18 18:00N 33°44' W 118°17'2 3.7
2017-Sep-18 17:28N 33°43' W 118°15'3 5.9
2017-Sep-18 17:00N 33°45' W 118°13'0 0.0
2017-Sep-18 16:29N 33°45' W 118°13'0 0.0
2017-Sep-18 16:00N 33°45' W 118°13'0 0.0
2017-Sep-18 15:24N 33°45' W 118°13'0 0.0
2017-Sep-18 14:59N 33°45' W 118°13'0 0.0
2017-Sep-18 14:30N 33°45' W 118°13'0 0.0
2017-Sep-18 13:59N 33°45' W 118°13'1 1.0
2017-Sep-18 13:29N 33°45' W 118°14'1 2.7
2017-Sep-18 12:59N 33°44' W 118°13'1 2.5
2017-Sep-18 12:29N 33°44' W 118°12'1 1.2
2017-Sep-18 11:52N 33°44' W 118°12'1 1.6
2017-Sep-18 11:29N 33°44' W 118°11'2 3.2
2017-Sep-18 11:00N 33°43' W 118°11'3 6.3
2017-Sep-18 10:29N 33°45' W 118°13'1 1.7
2017-Sep-18 10:00N 33°46' W 118°13'0 0.0
2017-Sep-18 09:28N 33°46' W 118°13'0 0.0
2017-Sep-18 09:00N 33°46' W 118°13'0 0.0
2017-Sep-18 08:28N 33°46' W 118°13'0 0.0
2017-Sep-18 07:59N 33°46' W 118°13'0 0.0
2017-Sep-18 07:21N 33°46' W 118°13'0 0.0
2017-Sep-18 06:58N 33°46' W 118°13'0 0.0
2017-Sep-18 06:27N 33°46' W 118°13'0 0.0
2017-Sep-18 06:00N 33°46' W 118°13'0 0.0
2017-Sep-18 05:28N 33°46' W 118°13'0 0.0
2017-Sep-18 04:58N 33°46' W 118°13'0 0.0
2017-Sep-18 04:25N 33°46' W 118°13'0 0.0
2017-Sep-18 03:56N 33°46' W 118°13'0 0.0
2017-Sep-18 03:24N 33°46' W 118°13'0 0.0
2017-Sep-18 02:56N 33°46' W 118°13'0 0.0
2017-Sep-18 02:25N 33°46' W 118°13'0 0.0
2017-Sep-18 02:00N 33°46' W 118°13'0 0.0
2017-Sep-18 01:29N 33°46' W 118°13'0 0.0
2017-Sep-18 01:00N 33°46' W 118°13'0 0.0
2017-Sep-18 00:27N 33°46' W 118°13'0 0.0
2017-Sep-17 23:56N 33°46' W 118°13'0 0.0
2017-Sep-17 23:29N 33°46' W 118°13'0 0.0
2017-Sep-17 23:00N 33°46' W 118°13'0 0.0
2017-Sep-17 22:29N 33°46' W 118°13'0 0.0
2017-Sep-17 21:54N 33°46' W 118°13'0 0.0
2017-Sep-17 21:30N 33°46' W 118°13'2 3.8
2017-Sep-17 21:00N 33°44' W 118°12'1 1.2
2017-Sep-17 20:30N 33°44' W 118°12'1 2.8
2017-Sep-17 19:59N 33°43' W 118°11'3 6.3
2017-Sep-17 19:28N 33°46' W 118°13'0 0.0
2017-Sep-17 18:56N 33°46' W 118°13'0 0.0
2017-Sep-17 18:26N 33°46' W 118°13'0 0.0
2017-Sep-17 16:06N 33°46' W 118°13'0 0.0
2017-Sep-17 14:08N 33°46' W 118°13'1 3.6
2017-Sep-17 13:56N 33°46' W 118°13'3 6.9
2017-Sep-17 13:26N 33°43' W 118°16'2 2.9
2017-Sep-17 12:52N 33°45' W 118°16'0 0.1
2017-Sep-17 12:30N 33°45' W 118°16'1 2.1
2017-Sep-17 11:51N 33°44' W 118°16'0 1.2
2017-Sep-17 11:30N 33°43' W 118°16'1 2.1
2017-Sep-17 10:49N 33°45' W 118°17'3 6.6
2017-Sep-17 10:26N 33°44' W 118°14'3 5.3
2017-Sep-17 09:56N 33°46' W 118°13'0 0.0
2017-Sep-17 09:30N 33°46' W 118°13'0 0.0
2017-Sep-17 08:15N 33°46' W 118°13'0 0.0
2017-Sep-17 08:00N 33°46' W 118°13'0 0.0
2017-Sep-17 07:23N 33°46' W 118°13'0 0.0
2017-Sep-17 06:47N 33°46' W 118°13'0 0.0
2017-Sep-17 06:25N 33°46' W 118°13'0 0.0
2017-Sep-17 06:00N 33°46' W 118°13'0 0.0
2017-Sep-17 05:06N 33°46' W 118°13'0 0.0
2017-Sep-17 04:59N 33°46' W 118°13'0 0.0
2017-Sep-17 04:28N 33°46' W 118°13'0 0.0
2017-Sep-17 03:56N 33°46' W 118°13'0 0.0
2017-Sep-17 03:27N 33°46' W 118°13'0 0.0
2017-Sep-17 02:54N 33°46' W 118°13'0 0.0
2017-Sep-17 02:30N 33°46' W 118°13'0 0.0
2017-Sep-17 01:59N 33°46' W 118°13'0 0.0
2017-Sep-17 01:29N 33°46' W 118°13'0 0.0
2017-Sep-17 00:59N 33°46' W 118°13'3 5.3
2017-Sep-17 00:27N 33°44' W 118°11'1 1.4
2017-Sep-16 23:58N 33°44' W 118°12'0 1.0
2017-Sep-16 23:30N 33°44' W 118°12'2 3.4
2017-Sep-16 22:51N 33°46' W 118°13'0 0.0
2017-Sep-16 22:30N 33°46' W 118°13'0 0.0
2017-Sep-16 21:59N 33°46' W 118°13'0 0.0
2017-Sep-16 21:30N 33°46' W 118°13'0 0.0
2017-Sep-16 20:59N 33°46' W 118°13'0 0.0
2017-Sep-16 20:30N 33°46' W 118°13'0 0.0
2017-Sep-16 19:57N 33°46' W 118°13'0 0.0
2017-Sep-16 19:30N 33°46' W 118°13'0 0.0
2017-Sep-16 19:00N 33°46' W 118°13'0 0.0
2017-Sep-16 18:30N 33°46' W 118°13'0 0.0
2017-Sep-16 18:00N 33°46' W 118°13'0 0.0
2017-Sep-16 17:19N 33°46' W 118°13'0 0.0
2017-Sep-16 16:44N 33°46' W 118°13'0 0.0
2017-Sep-16 16:15N 33°46' W 118°13'0 0.0
2017-Sep-16 15:49N 33°46' W 118°13'0 0.0
2017-Sep-16 15:29N 33°46' W 118°13'0 0.2
2017-Sep-16 15:00N 33°46' W 118°13'0 0.0
2017-Sep-16 13:48N 33°46' W 118°13'0 0.0
2017-Sep-16 13:29N 33°46' W 118°13'4 5.3
2017-Sep-16 12:44N 33°43' W 118°15'1 3.6
2017-Sep-16 12:30N 33°43' W 118°16'2 5.0
2017-Sep-16 12:00N 33°45' W 118°17'2 1.5
2017-Sep-16 10:42N 33°43' W 118°16'2 9.6
2017-Sep-16 10:30N 33°43' W 118°14'3 4.3
2017-Sep-16 09:49N 33°46' W 118°13'0 0.0
2017-Sep-16 09:30N 33°46' W 118°13'0 0.0
2017-Sep-16 08:34N 33°46' W 118°13'0 0.0
2017-Sep-16 08:28N 33°46' W 118°13'0 0.0
2017-Sep-16 07:57N 33°46' W 118°13'0 0.0
2017-Sep-16 07:22N 33°46' W 118°13'0 0.0
2017-Sep-16 06:54N 33°46' W 118°13'0 0.0
2017-Sep-16 06:30N 33°46' W 118°13'0 0.0
2017-Sep-16 06:00N 33°46' W 118°13'0 0.0
2017-Sep-16 05:29N 33°46' W 118°13'0 0.0
2017-Sep-16 05:00N 33°46' W 118°13'0 0.0
2017-Sep-16 04:28N 33°46' W 118°13'0 0.0
2017-Sep-16 04:00N 33°46' W 118°13'0 0.0
2017-Sep-16 03:24N 33°46' W 118°13'0 0.0
2017-Sep-16 03:00N 33°46' W 118°13'0 0.0
2017-Sep-16 02:27N 33°46' W 118°13'2 5.4
2017-Sep-16 02:00N 33°44' W 118°12'1 2.7
2017-Sep-16 01:29N 33°43' W 118°11'3 6.5
2017-Sep-16 01:00N 33°40' W 118°11'4 7.5
2017-Sep-16 00:29N 33°44' W 118°12'2 3.1
2017-Sep-16 00:00N 33°45' W 118°13'2 3.2
2017-Sep-15 23:30N 33°46' W 118°13'0 0.6
2017-Sep-15 23:00N 33°46' W 118°13'0 0.0
2017-Sep-15 22:29N 33°46' W 118°13'0 0.0
2017-Sep-15 22:00N 33°46' W 118°13'1 2.1
2017-Sep-15 21:30N 33°46' W 118°14'0 0.8
2017-Sep-15 21:00N 33°46' W 118°14'1 1.9
2017-Sep-15 20:30N 33°45' W 118°13'2 4.9
2017-Sep-15 20:00N 33°44' W 118°11'1 1.4
2017-Sep-15 19:29N 33°44' W 118°10'0 0.0
2017-Sep-15 19:00N 33°44' W 118°10'0 0.0
2017-Sep-15 18:30N 33°44' W 118°10'0 0.0
2017-Sep-15 18:00N 33°44' W 118°10'0 0.2
2017-Sep-15 17:30N 33°44' W 118°10'0 0.1
2017-Sep-15 17:00N 33°44' W 118°10'0 0.2
2017-Sep-15 16:24N 33°44' W 118°10'3 6.0
2017-Sep-15 15:56N 33°43' W 118°14'3 5.8
2017-Sep-15 15:28N 33°44' W 118°17'2 3.8
2017-Sep-15 14:59N 33°46' W 118°16'0 0.0
2017-Sep-15 14:29N 33°46' W 118°16'0 0.0
2017-Sep-15 14:00N 33°46' W 118°16'0 0.0
2017-Sep-15 13:29N 33°46' W 118°16'1 1.8
2017-Sep-15 12:56N 33°45' W 118°16'0 0.2
2017-Sep-15 12:30N 33°45' W 118°16'1 1.4
2017-Sep-15 12:00N 33°44' W 118°17'2 4.3
2017-Sep-15 11:30N 33°43' W 118°15'2 3.1
2017-Sep-15 11:00N 33°44' W 118°13'3 5.1
2017-Sep-15 10:30N 33°46' W 118°13'0 0.0
2017-Sep-15 09:57N 33°46' W 118°13'0 0.0
2017-Sep-15 09:30N 33°46' W 118°13'0 0.0
2017-Sep-15 09:00N 33°46' W 118°13'0 0.0
2017-Sep-15 08:30N 33°46' W 118°13'0 0.0
2017-Sep-15 08:00N 33°46' W 118°13'0 0.0
2017-Sep-15 07:29N 33°46' W 118°13'0 0.0
2017-Sep-15 06:57N 33°46' W 118°13'0 0.0
2017-Sep-15 06:29N 33°46' W 118°13'0 0.0
2017-Sep-15 06:00N 33°46' W 118°13'0 0.0
2017-Sep-15 05:29N 33°46' W 118°13'0 0.0
2017-Sep-15 04:59N 33°46' W 118°13'0 0.0
2017-Sep-15 04:28N 33°46' W 118°13'0 0.0
2017-Sep-15 03:56N 33°46' W 118°13'0 0.0
2017-Sep-15 03:27N 33°46' W 118°13'0 0.0
2017-Sep-15 02:59N 33°46' W 118°13'2 4.0
2017-Sep-15 02:30N 33°44' W 118°13'3 5.6
2017-Sep-15 01:59N 33°44' W 118°17'1 1.7
2017-Sep-15 01:30N 33°45' W 118°16'1 1.3
2017-Sep-15 01:00N 33°45' W 118°16'0 0.1
2017-Sep-15 00:30N 33°45' W 118°16'0 0.5
2017-Sep-14 23:59N 33°45' W 118°16'1 1.5
2017-Sep-14 23:29N 33°46' W 118°17'0 0.7
2017-Sep-14 23:00N 33°45' W 118°16'2 3.8
2017-Sep-14 22:30N 33°43' W 118°16'1 2.9
2017-Sep-14 21:59N 33°43' W 118°15'4 7.5
2017-Sep-14 21:30N 33°46' W 118°13'0 0.6
2017-Sep-14 20:55N 33°46' W 118°13'0 0.0
2017-Sep-14 20:30N 33°46' W 118°13'0 0.0
2017-Sep-14 20:00N 33°46' W 118°13'0 0.0
2017-Sep-14 19:29N 33°46' W 118°13'0 0.1
2017-Sep-14 19:00N 33°46' W 118°13'0 0.0
2017-Sep-14 18:29N 33°46' W 118°13'0 0.0
2017-Sep-14 18:00N 33°46' W 118°13'0 0.0
2017-Sep-14 17:29N 33°46' W 118°13'1 1.4
2017-Sep-14 17:00N 33°46' W 118°13'2 3.2
2017-Sep-14 16:30N 33°45' W 118°12'1 2.2
2017-Sep-14 16:00N 33°44' W 118°13'3 5.5
2017-Sep-14 15:29N 33°43' W 118°16'2 4.9
2017-Sep-14 15:00N 33°46' W 118°16'0 0.5
2017-Sep-14 14:26N 33°46' W 118°16'0 0.2
2017-Sep-14 13:52N 33°46' W 118°16'2 5.9
2017-Sep-14 13:30N 33°44' W 118°16'4 8.2
2017-Sep-14 13:00N 33°44' W 118°11'0 0.9
2017-Sep-14 12:29N 33°44' W 118°12'1 1.4
2017-Sep-14 12:00N 33°44' W 118°11'3 5.4
2017-Sep-14 11:30N 33°41' W 118°11'4 6.7
2017-Sep-14 10:52N 33°45' W 118°13'1 2.4
2017-Sep-14 10:29N 33°46' W 118°13'0 0.0
2017-Sep-14 09:58N 33°46' W 118°13'0 0.0
2017-Sep-14 09:30N 33°46' W 118°13'0 0.0
2017-Sep-14 08:59N 33°46' W 118°13'0 0.0
2017-Sep-14 08:30N 33°46' W 118°13'  
Track history (hours):
 
Tides and Currents Weather Stations Pressure Air Temp Water Temp Dewpoint Dewpoint Depression Visibility Wind Speed Wind Dir Waves Ship Positions

Pacific Star

Owner: Foss Maritime Company, Seattle, WA. More information available from US FCC via Universal Licensing System and Coast Guard Vessel Documentation Center.

Last reported at 2017-Sep-24 08:22 UTC. Time now 2017-Sep-24 08:51 UTC.
Position N 33°46' W 118°13'.

Length 30 m; draft 5.4 m.

Type: Tug. MMSI: 367563590.

Date/timePositionNaut miles runAvg speedWind from/ knotsBaromVisibWave heightAir tempDewpointWater temp
2017-Sep-24 08:22N 33°46' W 118°13'0 0.0
2017-Sep-24 08:00N 33°46' W 118°13'0 0.0
2017-Sep-24 07:28N 33°46' W 118°13'0 0.0
2017-Sep-24 06:57N 33°46' W 118°13'0 0.0
2017-Sep-24 06:30N 33°46' W 118°13'0 0.0
2017-Sep-24 06:00N 33°46' W 118°13'3 5.3
2017-Sep-24 05:30N 33°44' W 118°13'3 5.9
2017-Sep-24 05:00N 33°45' W 118°17'1 2.8
2017-Sep-24 04:30N 33°46' W 118°16'0 0.3
2017-Sep-24 04:00N 33°46' W 118°16'0 0.0
2017-Sep-24 03:30N 33°46' W 118°16'1 1.6
2017-Sep-24 03:00N 33°45' W 118°16'1 1.3
2017-Sep-24 02:30N 33°44' W 118°17'2 4.6
2017-Sep-24 02:00N 33°43' W 118°15'0 0.9
2017-Sep-24 01:30N 33°43' W 118°14'1 1.3
2017-Sep-24 00:58N 33°43' W 118°14'1 1.5
2017-Sep-24 00:31N 33°44' W 118°13'2 4.3
2017-Sep-23 23:58N 33°46' W 118°13'0 0.0
2017-Sep-23 23:30N 33°46' W 118°13'0 0.0
2017-Sep-23 23:00N 33°46' W 118°13'0 0.0
2017-Sep-23 22:29N 33°46' W 118°13'0 0.0
2017-Sep-23 22:00N 33°46' W 118°13'0 0.0
2017-Sep-23 21:27N 33°46' W 118°13'0 0.0
2017-Sep-23 20:14N 33°46' W 118°13'0 0.0
2017-Sep-23 19:59N 33°46' W 118°13'0 0.0
2017-Sep-22 02:00N 33°46' W 118°13'0 0.0
2017-Sep-22 01:27N 33°46' W 118°13'0 0.0
2017-Sep-22 01:00N 33°46' W 118°13'0 0.0
2017-Sep-22 00:30N 33°46' W 118°13'0 0.0
2017-Sep-22 00:00N 33°46' W 118°13'0 0.0
2017-Sep-21 23:30N 33°46' W 118°13'0 0.0
2017-Sep-21 22:58N 33°46' W 118°13'0 0.0
2017-Sep-21 22:29N 33°46' W 118°13'0 0.0
2017-Sep-21 21:57N 33°46' W 118°13'0 0.0
2017-Sep-21 21:30N 33°46' W 118°13'0 0.0
2017-Sep-21 21:00N 33°46' W 118°13'0 0.0
2017-Sep-21 20:30N 33°46' W 118°13'0 0.0
2017-Sep-21 20:00N 33°46' W 118°13'1 1.1
2017-Sep-21 19:30N 33°46' W 118°13'3 6.3
2017-Sep-21 19:00N 33°43' W 118°11'1 2.5
2017-Sep-21 18:30N 33°44' W 118°12'0 0.0
2017-Sep-21 18:00N 33°44' W 118°12'0 0.0
2017-Sep-21 17:30N 33°44' W 118°12'2 3.0
2017-Sep-21 17:00N 33°44' W 118°10'1 2.4
2017-Sep-21 16:30N 33°43' W 118°11'2 3.0
2017-Sep-21 15:57N 33°41' W 118°11'3 5.0
2017-Sep-21 15:16N 33°44' W 118°12'1 1.3
2017-Sep-21 14:50N 33°44' W 118°12'0 1.1
2017-Sep-21 14:30N 33°44' W 118°12'0 0.8
2017-Sep-21 13:57N 33°45' W 118°13'1 1.4
2017-Sep-21 13:24N 33°44' W 118°12'1 1.1
2017-Sep-21 12:46N 33°45' W 118°12'0 0.2
2017-Sep-21 12:28N 33°45' W 118°12'1 1.0
2017-Sep-21 11:57N 33°44' W 118°12'1 2.4
2017-Sep-21 11:27N 33°44' W 118°11'1 1.3
2017-Sep-21 10:43N 33°44' W 118°12'1 5.7
2017-Sep-21 10:28N 33°45' W 118°13'0 0.0
2017-Sep-21 09:56N 33°45' W 118°13'1 2.6
2017-Sep-21 09:30N 33°46' W 118°13'0 0.2
2017-Sep-21 08:58N 33°46' W 118°13'0 0.2
2017-Sep-21 07:28N 33°46' W 118°13'0 0.0
2017-Sep-21 06:44N 33°46' W 118°13'0 0.0
2017-Sep-21 06:30N 33°46' W 118°13'0 0.0
2017-Sep-21 06:00N 33°46' W 118°13'0 0.0
2017-Sep-21 05:26N 33°46' W 118°13'0 0.0
2017-Sep-21 05:00N 33°46' W 118°13'0 0.0
2017-Sep-21 04:30N 33°46' W 118°13'0 0.0
2017-Sep-21 03:59N 33°46' W 118°13'0 0.0
2017-Sep-21 03:30N 33°46' W 118°13'0 0.0
2017-Sep-21 02:59N 33°46' W 118°13'0 0.0
2017-Sep-21 02:30N 33°46' W 118°13'0 0.0
2017-Sep-21 02:00N 33°46' W 118°13'2 3.8
2017-Sep-21 01:29N 33°44' W 118°13'3 5.5
2017-Sep-21 00:59N 33°44' W 118°16'2 4.2
2017-Sep-21 00:30N 33°46' W 118°16'0 0.2
2017-Sep-21 00:00N 33°46' W 118°16'0 0.0
2017-Sep-20 23:30N 33°46' W 118°16'3 5.8
2017-Sep-20 23:01N 33°43' W 118°16'4 6.5
2017-Sep-20 22:28N 33°46' W 118°13'1 1.2
2017-Sep-20 22:00N 33°46' W 118°13'0 0.0
2017-Sep-20 21:30N 33°46' W 118°13'0 0.0
2017-Sep-20 21:00N 33°46' W 118°13'0 0.0
2017-Sep-20 20:30N 33°46' W 118°13'2 4.4
2017-Sep-20 20:00N 33°44' W 118°13'3 5.7
2017-Sep-20 19:30N 33°45' W 118°17'1 1.4
2017-Sep-20 19:00N 33°45' W 118°16'1 1.4
2017-Sep-20 18:31N 33°46' W 118°16'0 0.3
2017-Sep-20 18:00N 33°46' W 118°17'0 0.0
2017-Sep-20 17:30N 33°46' W 118°17'0 0.0
2017-Sep-20 17:00N 33°46' W 118°17'2 4.0
2017-Sep-20 16:31N 33°44' W 118°17'4 7.3
2017-Sep-20 15:59N 33°44' W 118°12'0 0.4
2017-Sep-20 15:28N 33°44' W 118°12'0 0.0
2017-Sep-20 14:55N 33°44' W 118°12'0 0.0
2017-Sep-20 13:59N 33°44' W 118°12'0 0.0
2017-Sep-20 13:28N 33°44' W 118°12'0 0.0
2017-Sep-20 12:50N 33°44' W 118°12'2 4.7
2017-Sep-20 12:28N 33°45' W 118°14'0 0.3
2017-Sep-20 11:48N 33°45' W 118°14'1 3.2
2017-Sep-20 11:23N 33°46' W 118°13'0 0.0
2017-Sep-20 10:59N 33°46' W 118°13'0 0.0
2017-Sep-20 10:28N 33°46' W 118°13'0 0.0
2017-Sep-20 10:00N 33°46' W 118°13'0 0.0
2017-Sep-20 09:30N 33°46' W 118°13'0 0.4
2017-Sep-20 08:55N 33°46' W 118°13'0 0.2
2017-Sep-20 08:28N 33°46' W 118°13'1 2.0
2017-Sep-20 08:00N 33°46' W 118°13'2 4.7
2017-Sep-20 07:30N 33°44' W 118°11'1 2.3
2017-Sep-20 07:00N 33°44' W 118°10'1 2.0
2017-Sep-20 06:30N 33°44' W 118°11'4 7.5
2017-Sep-20 06:00N 33°43' W 118°16'3 5.0
2017-Sep-20 05:29N 33°45' W 118°16'0 0.3
2017-Sep-20 04:52N 33°46' W 118°16'0 0.6
2017-Sep-20 04:30N 33°45' W 118°16'2 4.2
2017-Sep-20 03:58N 33°43' W 118°16'3 6.4
2017-Sep-20 03:26N 33°46' W 118°13'1 1.5
2017-Sep-20 02:59N 33°46' W 118°13'0 0.0
2017-Sep-20 02:25N 33°46' W 118°13'0 0.0
2017-Sep-20 02:00N 33°46' W 118°13'0 0.0
2017-Sep-20 01:30N 33°46' W 118°13'0 0.0
2017-Sep-20 01:00N 33°46' W 118°13'0 0.0
2017-Sep-20 00:28N 33°46' W 118°13'0 0.0
2017-Sep-20 00:00N 33°46' W 118°13'0 0.0
2017-Sep-19 23:30N 33°46' W 118°13'0 0.0
2017-Sep-19 23:00N 33°46' W 118°13'0 0.0
2017-Sep-19 22:27N 33°46' W 118°13'1 1.4
2017-Sep-19 21:59N 33°46' W 118°13'1 2.4
2017-Sep-19 21:31N 33°45' W 118°13'2 2.6
2017-Sep-19 20:54N 33°46' W 118°13'0 0.0
2017-Sep-19 20:28N 33°46' W 118°13'0 0.0
2017-Sep-19 19:58N 33°46' W 118°13'0 0.0
2017-Sep-19 19:22N 33°46' W 118°13'0 0.0
2017-Sep-19 19:00N 33°46' W 118°13'0 0.0
2017-Sep-19 18:26N 33°46' W 118°13'0 0.0
2017-Sep-19 17:56N 33°46' W 118°13'0 0.0
2017-Sep-19 17:29N 33°46' W 118°13'0 0.0
2017-Sep-19 16:45N 33°46' W 118°13'0 0.0
2017-Sep-19 15:38N 33°46' W 118°13'0 0.0
2017-Sep-19 15:05N 33°46' W 118°13'0 0.0
2017-Sep-19 14:58N 33°46' W 118°13'0 0.0
2017-Sep-19 14:28N 33°46' W 118°13'0 0.0
2017-Sep-19 13:58N 33°46' W 118°13'0 0.0
2017-Sep-19 13:22N 33°46' W 118°13'0 1.1
2017-Sep-19 12:57N 33°46' W 118°13'1 1.9
2017-Sep-19 12:27N 33°45' W 118°14'0 0.5
2017-Sep-19 11:58N 33°45' W 118°14'3 3.2
2017-Sep-19 11:11N 33°44' W 118°11'0 0.4
2017-Sep-19 10:41N 33°44' W 118°12'3 4.5
2017-Sep-19 10:03N 33°46' W 118°13'0 0.0
2017-Sep-19 09:53N 33°46' W 118°13'0 0.0
2017-Sep-19 09:29N 33°46' W 118°13'0 0.0
2017-Sep-19 08:51N 33°46' W 118°13'0 0.0
2017-Sep-19 08:30N 33°46' W 118°13'0 0.0
2017-Sep-19 07:47N 33°46' W 118°13'0 0.0
2017-Sep-19 07:24N 33°46' W 118°13'0 0.0
2017-Sep-19 06:54N 33°46' W 118°13'0 0.0
2017-Sep-19 06:10N 33°46' W 118°13'0 0.0
2017-Sep-19 05:59N 33°46' W 118°13'0 0.0
2017-Sep-19 05:24N 33°46' W 118°13'0 0.0
2017-Sep-19 05:00N 33°46' W 118°13'0 0.0
2017-Sep-19 04:29N 33°46' W 118°13'1 2.6
2017-Sep-19 03:58N 33°45' W 118°13'3 5.4
2017-Sep-19 03:24N 33°44' W 118°17'1 3.6
2017-Sep-19 03:00N 33°46' W 118°16'0 0.1
2017-Sep-19 02:29N 33°46' W 118°16'1 1.1
2017-Sep-19 01:56N 33°45' W 118°16'2 4.3
2017-Sep-19 01:25N 33°43' W 118°16'3 6.1
2017-Sep-19 00:59N 33°42' W 118°13'1 1.0
2017-Sep-19 00:25N 33°42' W 118°12'1 2.7
2017-Sep-18 23:59N 33°43' W 118°11'3 6.7
2017-Sep-18 23:30N 33°46' W 118°13'0 0.0
2017-Sep-18 22:59N 33°46' W 118°13'0 0.0
2017-Sep-18 22:28N 33°46' W 118°13'2 4.7
2017-Sep-18 21:58N 33°44' W 118°13'3 5.8
2017-Sep-18 21:29N 33°44' W 118°17'0 0.9
2017-Sep-18 21:00N 33°45' W 118°16'0 0.2
2017-Sep-18 20:29N 33°45' W 118°16'2 4.5
2017-Sep-18 20:00N 33°43' W 118°15'0 0.4
2017-Sep-18 19:31N 33°43' W 118°16'3 5.4
2017-Sep-18 19:00N 33°46' W 118°17'0 0.1
2017-Sep-18 18:30N 33°45' W 118°17'1 2.8
2017-Sep-18 18:00N 33°44' W 118°17'2 3.7
2017-Sep-18 17:28N 33°43' W 118°15'3 5.9
2017-Sep-18 17:00N 33°45' W 118°13'0 0.0
2017-Sep-18 16:29N 33°45' W 118°13'0 0.0
2017-Sep-18 16:00N 33°45' W 118°13'0 0.0
2017-Sep-18 15:24N 33°45' W 118°13'0 0.0
2017-Sep-18 14:59N 33°45' W 118°13'0 0.0
2017-Sep-18 14:30N 33°45' W 118°13'0 0.0
2017-Sep-18 13:59N 33°45' W 118°13'1 1.0
2017-Sep-18 13:29N 33°45' W 118°14'1 2.7
2017-Sep-18 12:59N 33°44' W 118°13'1 2.5
2017-Sep-18 12:29N 33°44' W 118°12'1 1.2
2017-Sep-18 11:52N 33°44' W 118°12'1 1.6
2017-Sep-18 11:29N 33°44' W 118°11'2 3.2
2017-Sep-18 11:00N 33°43' W 118°11'3 6.3
2017-Sep-18 10:29N 33°45' W 118°13'1 1.7
2017-Sep-18 10:00N 33°46' W 118°13'0 0.0
2017-Sep-18 09:28N 33°46' W 118°13'0 0.0
2017-Sep-18 09:00N 33°46' W 118°13'0 0.0
2017-Sep-18 08:28N 33°46' W 118°13'0 0.0
2017-Sep-18 07:59N 33°46' W 118°13'0 0.0
2017-Sep-18 07:21N 33°46' W 118°13'0 0.0
2017-Sep-18 06:58N 33°46' W 118°13'0 0.0
2017-Sep-18 06:27N 33°46' W 118°13'0 0.0
2017-Sep-18 06:00N 33°46' W 118°13'0 0.0
2017-Sep-18 05:28N 33°46' W 118°13'0 0.0
2017-Sep-18 04:58N 33°46' W 118°13'0 0.0
2017-Sep-18 04:25N 33°46' W 118°13'0 0.0
2017-Sep-18 03:56N 33°46' W 118°13'0 0.0
2017-Sep-18 03:24N 33°46' W 118°13'0 0.0
2017-Sep-18 02:56N 33°46' W 118°13'0 0.0
2017-Sep-18 02:25N 33°46' W 118°13'0 0.0
2017-Sep-18 02:00N 33°46' W 118°13'0 0.0
2017-Sep-18 01:29N 33°46' W 118°13'0 0.0
2017-Sep-18 01:00N 33°46' W 118°13'0 0.0
2017-Sep-18 00:27N 33°46' W 118°13'0 0.0
2017-Sep-17 23:56N 33°46' W 118°13'0 0.0
2017-Sep-17 23:29N 33°46' W 118°13'0 0.0
2017-Sep-17 23:00N 33°46' W 118°13'0 0.0
2017-Sep-17 22:29N 33°46' W 118°13'0 0.0
2017-Sep-17 21:54N 33°46' W 118°13'0 0.0
2017-Sep-17 21:30N 33°46' W 118°13'2 3.8
2017-Sep-17 21:00N 33°44' W 118°12'1 1.2
2017-Sep-17 20:30N 33°44' W 118°12'1 2.8
2017-Sep-17 19:59N 33°43' W 118°11'3 6.3
2017-Sep-17 19:28N 33°46' W 118°13'0 0.0
2017-Sep-17 18:56N 33°46' W 118°13'0 0.0
2017-Sep-17 18:26N 33°46' W 118°13'0 0.0
2017-Sep-17 16:06N 33°46' W 118°13'0 0.0
2017-Sep-17 14:08N 33°46' W 118°13'1 3.6
2017-Sep-17 13:56N 33°46' W 118°13'3 6.9
2017-Sep-17 13:26N 33°43' W 118°16'2 2.9
2017-Sep-17 12:52N 33°45' W 118°16'0 0.1
2017-Sep-17 12:30N 33°45' W 118°16'1 2.1
2017-Sep-17 11:51N 33°44' W 118°16'0 1.2
2017-Sep-17 11:30N 33°43' W 118°16'1 2.1
2017-Sep-17 10:49N 33°45' W 118°17'3 6.6
2017-Sep-17 10:26N 33°44' W 118°14'3 5.3
2017-Sep-17 09:56N 33°46' W 118°13'0 0.0
2017-Sep-17 09:30N 33°46' W 118°13'0 0.0
2017-Sep-17 08:15N 33°46' W 118°13'0 0.0
2017-Sep-17 08:00N 33°46' W 118°13'0 0.0
2017-Sep-17 07:23N 33°46' W 118°13'0 0.0
2017-Sep-17 06:47N 33°46' W 118°13'0 0.0
2017-Sep-17 06:25N 33°46' W 118°13'0 0.0
2017-Sep-17 06:00N 33°46' W 118°13'0 0.0
2017-Sep-17 05:06N 33°46' W 118°13'0 0.0
2017-Sep-17 04:59N 33°46' W 118°13'0 0.0
2017-Sep-17 04:28N 33°46' W 118°13'0 0.0
2017-Sep-17 03:56N 33°46' W 118°13'0 0.0
2017-Sep-17 03:27N 33°46' W 118°13'0 0.0
2017-Sep-17 02:54N 33°46' W 118°13'0 0.0
2017-Sep-17 02:30N 33°46' W 118°13'0 0.0
2017-Sep-17 01:59N 33°46' W 118°13'0 0.0
2017-Sep-17 01:29N 33°46' W 118°13'0 0.0
2017-Sep-17 00:59N 33°46' W 118°13'3 5.3
2017-Sep-17 00:27N 33°44' W 118°11'1 1.4
2017-Sep-16 23:58N 33°44' W 118°12'0 1.0
2017-Sep-16 23:30N 33°44' W 118°12'2 3.4
2017-Sep-16 22:51N 33°46' W 118°13'0 0.0
2017-Sep-16 22:30N 33°46' W 118°13'0 0.0
2017-Sep-16 21:59N 33°46' W 118°13'0 0.0
2017-Sep-16 21:30N 33°46' W 118°13'0 0.0
2017-Sep-16 20:59N 33°46' W 118°13'0 0.0
2017-Sep-16 20:30N 33°46' W 118°13'0 0.0
2017-Sep-16 19:57N 33°46' W 118°13'0 0.0
2017-Sep-16 19:30N 33°46' W 118°13'0 0.0
2017-Sep-16 19:00N 33°46' W 118°13'0 0.0
2017-Sep-16 18:30N 33°46' W 118°13'0 0.0
2017-Sep-16 18:00N 33°46' W 118°13'0 0.0
2017-Sep-16 17:19N 33°46' W 118°13'0 0.0
2017-Sep-16 16:44N 33°46' W 118°13'0 0.0
2017-Sep-16 16:15N 33°46' W 118°13'0 0.0
2017-Sep-16 15:49N 33°46' W 118°13'0 0.0
2017-Sep-16 15:29N 33°46' W 118°13'0 0.2
2017-Sep-16 15:00N 33°46' W 118°13'0 0.0
2017-Sep-16 13:48N 33°46' W 118°13'0 0.0
2017-Sep-16 13:29N 33°46' W 118°13'4 5.3
2017-Sep-16 12:44N 33°43' W 118°15'1 3.6
2017-Sep-16 12:30N 33°43' W 118°16'2 5.0
2017-Sep-16 12:00N 33°45' W 118°17'2 1.5
2017-Sep-16 10:42N 33°43' W 118°16'2 9.6
2017-Sep-16 10:30N 33°43' W 118°14'3 4.3
2017-Sep-16 09:49N 33°46' W 118°13'0 0.0
2017-Sep-16 09:30N 33°46' W 118°13'0 0.0
2017-Sep-16 08:34N 33°46' W 118°13'0 0.0
2017-Sep-16 08:28N 33°46' W 118°13'0 0.0
2017-Sep-16 07:57N 33°46' W 118°13'0 0.0
2017-Sep-16 07:22N 33°46' W 118°13'0 0.0
2017-Sep-16 06:54N 33°46' W 118°13'0 0.0
2017-Sep-16 06:30N 33°46' W 118°13'0 0.0
2017-Sep-16 06:00N 33°46' W 118°13'0 0.0
2017-Sep-16 05:29N 33°46' W 118°13'0 0.0
2017-Sep-16 05:00N 33°46' W 118°13'0 0.0
2017-Sep-16 04:28N 33°46' W 118°13'0 0.0
2017-Sep-16 04:00N 33°46' W 118°13'0 0.0
2017-Sep-16 03:24N 33°46' W 118°13'0 0.0
2017-Sep-16 03:00N 33°46' W 118°13'0 0.0
2017-Sep-16 02:27N 33°46' W 118°13'2 5.4
2017-Sep-16 02:00N 33°44' W 118°12'1 2.7
2017-Sep-16 01:29N 33°43' W 118°11'3 6.5
2017-Sep-16 01:00N 33°40' W 118°11'4 7.5
2017-Sep-16 00:29N 33°44' W 118°12'2 3.1
2017-Sep-16 00:00N 33°45' W 118°13'2 3.2
2017-Sep-15 23:30N 33°46' W 118°13'0 0.6
2017-Sep-15 23:00N 33°46' W 118°13'0 0.0
2017-Sep-15 22:29N 33°46' W 118°13'0 0.0
2017-Sep-15 22:00N 33°46' W 118°13'1 2.1
2017-Sep-15 21:30N 33°46' W 118°14'0 0.8
2017-Sep-15 21:00N 33°46' W 118°14'1 1.9
2017-Sep-15 20:30N 33°45' W 118°13'2 4.9
2017-Sep-15 20:00N 33°44' W 118°11'1 1.4
2017-Sep-15 19:29N 33°44' W 118°10'0 0.0
2017-Sep-15 19:00N 33°44' W 118°10'0 0.0
2017-Sep-15 18:30N 33°44' W 118°10'0 0.0
2017-Sep-15 18:00N 33°44' W 118°10'0 0.2
2017-Sep-15 17:30N 33°44' W 118°10'0 0.1
2017-Sep-15 17:00N 33°44' W 118°10'0 0.2
2017-Sep-15 16:24N 33°44' W 118°10'3 6.0
2017-Sep-15 15:56N 33°43' W 118°14'3 5.8
2017-Sep-15 15:28N 33°44' W 118°17'2 3.8
2017-Sep-15 14:59N 33°46' W 118°16'0 0.0
2017-Sep-15 14:29N 33°46' W 118°16'0 0.0
2017-Sep-15 14:00N 33°46' W 118°16'0 0.0
2017-Sep-15 13:29N 33°46' W 118°16'1 1.8
2017-Sep-15 12:56N 33°45' W 118°16'0 0.2
2017-Sep-15 12:30N 33°45' W 118°16'1 1.4
2017-Sep-15 12:00N 33°44' W 118°17'2 4.3
2017-Sep-15 11:30N 33°43' W 118°15'2 3.1
2017-Sep-15 11:00N 33°44' W 118°13'3 5.1
2017-Sep-15 10:30N 33°46' W 118°13'0 0.0
2017-Sep-15 09:57N 33°46' W 118°13'0 0.0
2017-Sep-15 09:30N 33°46' W 118°13'0 0.0
2017-Sep-15 09:00N 33°46' W 118°13'0 0.0
2017-Sep-15 08:30N 33°46' W 118°13'0 0.0
2017-Sep-15 08:00N 33°46' W 118°13'0 0.0
2017-Sep-15 07:29N 33°46' W 118°13'0 0.0
2017-Sep-15 06:57N 33°46' W 118°13'0 0.0
2017-Sep-15 06:29N 33°46' W 118°13'0 0.0
2017-Sep-15 06:00N 33°46' W 118°13'0 0.0
2017-Sep-15 05:29N 33°46' W 118°13'0 0.0
2017-Sep-15 04:59N 33°46' W 118°13'0 0.0
2017-Sep-15 04:28N 33°46' W 118°13'0 0.0
2017-Sep-15 03:56N 33°46' W 118°13'0 0.0
2017-Sep-15 03:27N 33°46' W 118°13'0 0.0
2017-Sep-15 02:59N 33°46' W 118°13'2 4.0
2017-Sep-15 02:30N 33°44' W 118°13'3 5.6
2017-Sep-15 01:59N 33°44' W 118°17'1 1.7
2017-Sep-15 01:30N 33°45' W 118°16'1 1.3
2017-Sep-15 01:00N 33°45' W 118°16'0 0.1
2017-Sep-15 00:30N 33°45' W 118°16'0 0.5
2017-Sep-14 23:59N 33°45' W 118°16'1 1.5
2017-Sep-14 23:29N 33°46' W 118°17'0 0.7
2017-Sep-14 23:00N 33°45' W 118°16'2 3.8
2017-Sep-14 22:30N 33°43' W 118°16'1 2.9
2017-Sep-14 21:59N 33°43' W 118°15'4 7.5
2017-Sep-14 21:30N 33°46' W 118°13'0 0.6
2017-Sep-14 20:55N 33°46' W 118°13'0 0.0
2017-Sep-14 20:30N 33°46' W 118°13'0 0.0
2017-Sep-14 20:00N 33°46' W 118°13'0 0.0
2017-Sep-14 19:29N 33°46' W 118°13'0 0.1
2017-Sep-14 19:00N 33°46' W 118°13'0 0.0
2017-Sep-14 18:29N 33°46' W 118°13'0 0.0
2017-Sep-14 18:00N 33°46' W 118°13'0 0.0
2017-Sep-14 17:29N 33°46' W 118°13'1 1.4
2017-Sep-14 17:00N 33°46' W 118°13'2 3.2
2017-Sep-14 16:30N 33°45' W 118°12'1 2.2
2017-Sep-14 16:00N 33°44' W 118°13'3 5.5
2017-Sep-14 15:29N 33°43' W 118°16'2 4.9
2017-Sep-14 15:00N 33°46' W 118°16'0 0.5
2017-Sep-14 14:26N 33°46' W 118°16'0 0.2
2017-Sep-14 13:52N 33°46' W 118°16'2 5.9
2017-Sep-14 13:30N 33°44' W 118°16'4 8.2
2017-Sep-14 13:00N 33°44' W 118°11'0 0.9
2017-Sep-14 12:29N 33°44' W 118°12'1 1.4
2017-Sep-14 12:00N 33°44' W 118°11'3 5.4
2017-Sep-14 11:30N 33°41' W 118°11'4 6.7
2017-Sep-14 10:52N 33°45' W 118°13'1 2.4
2017-Sep-14 10:29N 33°46' W 118°13'0 0.0
2017-Sep-14 09:58N 33°46' W 118°13'0 0.0
2017-Sep-14 09:30N 33°46' W 118°13'0 0.0
2017-Sep-14 08:59N 33°46' W 118°13'0 0.0
2017-Sep-14 08:30N 33°46' W 118°13'  

Dump ship's entire track history